sensor_id;sensor_type;location;lat;lon;timestamp;temperature;humidity
40059;SHT31;25763;49.972;8.568;2022-10-31T00:01:19;11.17;85.65
40059;SHT31;25763;49.972;8.568;2022-10-31T00:03:45;10.87;85.43
40059;SHT31;25763;49.972;8.568;2022-10-31T00:06:10;10.58;85.67
40059;SHT31;25763;49.972;8.568;2022-10-31T00:08:36;10.38;86.28
40059;SHT31;25763;49.972;8.568;2022-10-31T00:11:01;10.13;87.01
40059;SHT31;25763;49.972;8.568;2022-10-31T00:13:27;10.09;87.08
40059;SHT31;25763;49.972;8.568;2022-10-31T00:15:52;10.03;87.34
40059;SHT31;25763;49.972;8.568;2022-10-31T00:18:17;9.93;87.52
40059;SHT31;25763;49.972;8.568;2022-10-31T00:20:43;9.78;87.76
40059;SHT31;25763;49.972;8.568;2022-10-31T00:23:09;9.74;88.11
40059;SHT31;25763;49.972;8.568;2022-10-31T00:25:37;9.91;88.21
40059;SHT31;25763;49.972;8.568;2022-10-31T00:28:05;10.09;88.14
40059;SHT31;25763;49.972;8.568;2022-10-31T00:30:31;10.23;88.20
40059;SHT31;25763;49.972;8.568;2022-10-31T00:32:56;10.37;88.02
40059;SHT31;25763;49.972;8.568;2022-10-31T00:35:22;10.42;87.78
40059;SHT31;25763;49.972;8.568;2022-10-31T00:37:47;10.52;87.62
40059;SHT31;25763;49.972;8.568;2022-10-31T00:40:12;10.57;87.58
40059;SHT31;25763;49.972;8.568;2022-10-31T00:42:39;10.61;87.39
40059;SHT31;25763;49.972;8.568;2022-10-31T00:45:10;10.62;87.22
40059;SHT31;25763;49.972;8.568;2022-10-31T00:47:35;10.67;87.09
40059;SHT31;25763;49.972;8.568;2022-10-31T00:50:02;10.67;86.97
40059;SHT31;25763;49.972;8.568;2022-10-31T00:52:28;10.68;86.89
40059;SHT31;25763;49.972;8.568;2022-10-31T00:54:53;10.71;86.86
40059;SHT31;25763;49.972;8.568;2022-10-31T00:57:18;10.71;86.65
40059;SHT31;25763;49.972;8.568;2022-10-31T00:59:44;10.69;86.64
40059;SHT31;25763;49.972;8.568;2022-10-31T01:02:09;10.73;86.59
40059;SHT31;25763;49.972;8.568;2022-10-31T01:04:34;10.75;86.55
40059;SHT31;25763;49.972;8.568;2022-10-31T01:07:00;10.76;86.57
40059;SHT31;25763;49.972;8.568;2022-10-31T01:09:25;10.77;86.49
40059;SHT31;25763;49.972;8.568;2022-10-31T01:11:50;10.75;86.46
40059;SHT31;25763;49.972;8.568;2022-10-31T01:14:16;10.75;86.42
40059;SHT31;25763;49.972;8.568;2022-10-31T01:16:41;10.75;86.40
40059;SHT31;25763;49.972;8.568;2022-10-31T01:19:07;10.71;86.12
40059;SHT31;25763;49.972;8.568;2022-10-31T01:21:33;10.65;85.87
40059;SHT31;25763;49.972;8.568;2022-10-31T01:23:59;10.38;85.71
40059;SHT31;25763;49.972;8.568;2022-10-31T01:26:26;10.24;85.74
40059;SHT31;25763;49.972;8.568;2022-10-31T01:28:54;10.24;85.94
40059;SHT31;25763;49.972;8.568;2022-10-31T01:31:23;10.08;86.46
40059;SHT31;25763;49.972;8.568;2022-10-31T01:33:48;9.96;87.22
40059;SHT31;25763;49.972;8.568;2022-10-31T01:36:21;9.88;87.31
40059;SHT31;25763;49.972;8.568;2022-10-31T01:38:47;9.75;87.76
40059;SHT31;25763;49.972;8.568;2022-10-31T01:41:19;9.78;87.96
40059;SHT31;25763;49.972;8.568;2022-10-31T01:43:49;9.85;87.94
40059;SHT31;25763;49.972;8.568;2022-10-31T01:46:38;9.81;88.24
40059;SHT31;25763;49.972;8.568;2022-10-31T01:49:08;9.86;88.06
40059;SHT31;25763;49.972;8.568;2022-10-31T01:51:37;9.71;88.22
40059;SHT31;25763;49.972;8.568;2022-10-31T01:54:10;9.50;88.61
40059;SHT31;25763;49.972;8.568;2022-10-31T01:56:39;9.48;89.07
40059;SHT31;25763;49.972;8.568;2022-10-31T01:59:07;9.51;88.89
40059;SHT31;25763;49.972;8.568;2022-10-31T02:01:34;9.37;89.01
40059;SHT31;25763;49.972;8.568;2022-10-31T02:04:00;9.43;88.91
40059;SHT31;25763;49.972;8.568;2022-10-31T02:06:43;9.54;88.71
40059;SHT31;25763;49.972;8.568;2022-10-31T02:09:11;9.64;88.52
40059;SHT31;25763;49.972;8.568;2022-10-31T02:11:38;9.61;88.42
40059;SHT31;25763;49.972;8.568;2022-10-31T02:14:03;9.43;88.65
40059;SHT31;25763;49.972;8.568;2022-10-31T02:16:29;9.52;88.71
40059;SHT31;25763;49.972;8.568;2022-10-31T02:18:54;9.64;88.57
40059;SHT31;25763;49.972;8.568;2022-10-31T02:21:33;9.78;88.63
40059;SHT31;25763;49.972;8.568;2022-10-31T02:27:21;9.95;88.40
40059;SHT31;25763;49.972;8.568;2022-10-31T02:30:09;9.99;88.28
40059;SHT31;25763;49.972;8.568;2022-10-31T02:35:32;10.12;88.03
40059;SHT31;25763;49.972;8.568;2022-10-31T02:41:01;10.18;87.86
40059;SHT31;25763;49.972;8.568;2022-10-31T02:43:42;10.21;87.77
40059;SHT31;25763;49.972;8.568;2022-10-31T02:46:27;10.27;87.71
40059;SHT31;25763;49.972;8.568;2022-10-31T02:48:58;10.26;87.65
40059;SHT31;25763;49.972;8.568;2022-10-31T02:51:25;10.27;87.64
40059;SHT31;25763;49.972;8.568;2022-10-31T02:53:50;10.28;87.60
40059;SHT31;25763;49.972;8.568;2022-10-31T02:56:19;10.30;87.65
40059;SHT31;25763;49.972;8.568;2022-10-31T02:59:00;10.33;87.68
40059;SHT31;25763;49.972;8.568;2022-10-31T03:01:42;10.38;87.63
40059;SHT31;25763;49.972;8.568;2022-10-31T03:04:20;10.40;87.51
40059;SHT31;25763;49.972;8.568;2022-10-31T03:06:50;10.42;87.44
40059;SHT31;25763;49.972;8.568;2022-10-31T03:09:21;10.33;88.04
40059;SHT31;25763;49.972;8.568;2022-10-31T03:11:57;10.34;88.14
40059;SHT31;25763;49.972;8.568;2022-10-31T03:14:39;10.18;88.21
40059;SHT31;25763;49.972;8.568;2022-10-31T03:17:09;10.10;88.57
40059;SHT31;25763;49.972;8.568;2022-10-31T03:19:42;9.95;88.95
40059;SHT31;25763;49.972;8.568;2022-10-31T03:22:20;9.92;88.97
40059;SHT31;25763;49.972;8.568;2022-10-31T03:24:47;9.91;89.01
40059;SHT31;25763;49.972;8.568;2022-10-31T03:27:20;9.78;89.19
40059;SHT31;25763;49.972;8.568;2022-10-31T03:29:47;9.64;89.62
40059;SHT31;25763;49.972;8.568;2022-10-31T03:32:27;9.52;89.88
40059;SHT31;25763;49.972;8.568;2022-10-31T03:34:55;9.46;90.11
40059;SHT31;25763;49.972;8.568;2022-10-31T03:37:22;9.40;90.32
40059;SHT31;25763;49.972;8.568;2022-10-31T03:39:49;9.32;90.62
40059;SHT31;25763;49.972;8.568;2022-10-31T03:42:24;9.40;90.79
40059;SHT31;25763;49.972;8.568;2022-10-31T03:44:56;9.41;90.96
40059;SHT31;25763;49.972;8.568;2022-10-31T03:47:23;9.50;90.89
40059;SHT31;25763;49.972;8.568;2022-10-31T03:49:49;9.51;91.05
40059;SHT31;25763;49.972;8.568;2022-10-31T03:55:39;9.71;90.95
40059;SHT31;25763;49.972;8.568;2022-10-31T03:58:10;9.85;90.84
40059;SHT31;25763;49.972;8.568;2022-10-31T04:00:39;9.98;90.69
40059;SHT31;25763;49.972;8.568;2022-10-31T04:03:15;10.06;90.54
40059;SHT31;25763;49.972;8.568;2022-10-31T04:05:44;9.99;90.61
40059;SHT31;25763;49.972;8.568;2022-10-31T04:08:15;10.02;90.71
40059;SHT31;25763;49.972;8.568;2022-10-31T04:10:43;9.96;90.61
40059;SHT31;25763;49.972;8.568;2022-10-31T04:13:14;10.05;90.66
40059;SHT31;25763;49.972;8.568;2022-10-31T04:15:41;10.12;90.50
40059;SHT31;25763;49.972;8.568;2022-10-31T04:18:07;10.14;90.34
40059;SHT31;25763;49.972;8.568;2022-10-31T04:20:34;10.20;90.16
40059;SHT31;25763;49.972;8.568;2022-10-31T04:23:00;10.26;90.10
40059;SHT31;25763;49.972;8.568;2022-10-31T04:25:26;10.28;90.03
40059;SHT31;25763;49.972;8.568;2022-10-31T04:27:52;10.33;89.95
40059;SHT31;25763;49.972;8.568;2022-10-31T04:30:17;10.34;89.89
40059;SHT31;25763;49.972;8.568;2022-10-31T04:32:42;10.34;89.77
40059;SHT31;25763;49.972;8.568;2022-10-31T04:35:08;10.38;89.69
40059;SHT31;25763;49.972;8.568;2022-10-31T04:37:33;10.40;89.60
40059;SHT31;25763;49.972;8.568;2022-10-31T04:39:58;10.44;89.52
40059;SHT31;25763;49.972;8.568;2022-10-31T04:42:24;10.42;89.46
40059;SHT31;25763;49.972;8.568;2022-10-31T04:44:49;10.44;89.36
40059;SHT31;25763;49.972;8.568;2022-10-31T04:47:14;10.41;89.29
40059;SHT31;25763;49.972;8.568;2022-10-31T04:49:40;10.44;89.26
40059;SHT31;25763;49.972;8.568;2022-10-31T04:52:05;10.42;89.20
40059;SHT31;25763;49.972;8.568;2022-10-31T04:54:32;10.42;89.12
40059;SHT31;25763;49.972;8.568;2022-10-31T04:56:57;10.45;89.08
40059;SHT31;25763;49.972;8.568;2022-10-31T04:59:22;10.51;89.05
40059;SHT31;25763;49.972;8.568;2022-10-31T05:01:48;10.51;89.06
40059;SHT31;25763;49.972;8.568;2022-10-31T05:04:13;10.54;89.00
40059;SHT31;25763;49.972;8.568;2022-10-31T05:06:38;10.58;88.98
40059;SHT31;25763;49.972;8.568;2022-10-31T05:09:04;10.61;88.80
40059;SHT31;25763;49.972;8.568;2022-10-31T05:11:29;10.59;88.73
40059;SHT31;25763;49.972;8.568;2022-10-31T05:13:54;10.57;88.64
40059;SHT31;25763;49.972;8.568;2022-10-31T05:16:20;10.57;88.51
40059;SHT31;25763;49.972;8.568;2022-10-31T05:18:45;10.57;88.43
40059;SHT31;25763;49.972;8.568;2022-10-31T05:21:10;10.55;88.45
40059;SHT31;25763;49.972;8.568;2022-10-31T05:23:36;10.57;88.40
40059;SHT31;25763;49.972;8.568;2022-10-31T05:26:01;10.45;88.90
40059;SHT31;25763;49.972;8.568;2022-10-31T05:28:27;10.48;88.90
40059;SHT31;25763;49.972;8.568;2022-10-31T05:30:52;10.35;88.74
40059;SHT31;25763;49.972;8.568;2022-10-31T05:33:17;10.08;88.83
40059;SHT31;25763;49.972;8.568;2022-10-31T05:35:43;10.02;88.78
40059;SHT31;25763;49.972;8.568;2022-10-31T05:38:08;10.02;88.88
40059;SHT31;25763;49.972;8.568;2022-10-31T05:40:33;10.02;88.85
40059;SHT31;25763;49.972;8.568;2022-10-31T05:42:59;9.98;88.88
40059;SHT31;25763;49.972;8.568;2022-10-31T05:45:24;10.02;89.01
40059;SHT31;25763;49.972;8.568;2022-10-31T05:47:54;10.03;88.95
40059;SHT31;25763;49.972;8.568;2022-10-31T05:50:22;10.12;88.84
40059;SHT31;25763;49.972;8.568;2022-10-31T05:52:54;10.21;88.69
40059;SHT31;25763;49.972;8.568;2022-10-31T05:55:20;10.28;88.52
40059;SHT31;25763;49.972;8.568;2022-10-31T05:57:45;10.28;88.36
40059;SHT31;25763;49.972;8.568;2022-10-31T06:00:11;10.30;88.41
40059;SHT31;25763;49.972;8.568;2022-10-31T06:02:36;10.26;88.47
40059;SHT31;25763;49.972;8.568;2022-10-31T06:05:02;10.21;88.60
40059;SHT31;25763;49.972;8.568;2022-10-31T06:07:32;10.20;88.58
40059;SHT31;25763;49.972;8.568;2022-10-31T06:09:58;10.18;88.90
40059;SHT31;25763;49.972;8.568;2022-10-31T06:12:24;10.20;88.87
40059;SHT31;25763;49.972;8.568;2022-10-31T06:14:49;10.24;88.91
40059;SHT31;25763;49.972;8.568;2022-10-31T06:17:14;10.31;88.76
40059;SHT31;25763;49.972;8.568;2022-10-31T06:19:40;10.31;88.62
40059;SHT31;25763;49.972;8.568;2022-10-31T06:22:05;10.33;88.43
40059;SHT31;25763;49.972;8.568;2022-10-31T06:24:31;10.33;88.36
40059;SHT31;25763;49.972;8.568;2022-10-31T06:26:56;10.33;88.27
40059;SHT31;25763;49.972;8.568;2022-10-31T06:29:21;10.37;88.18
40059;SHT31;25763;49.972;8.568;2022-10-31T06:31:47;10.40;88.15
40059;SHT31;25763;49.972;8.568;2022-10-31T06:34:12;10.42;88.19
40059;SHT31;25763;49.972;8.568;2022-10-31T06:36:37;10.49;88.10
40059;SHT31;25763;49.972;8.568;2022-10-31T06:39:03;10.51;87.98
40059;SHT31;25763;49.972;8.568;2022-10-31T06:41:28;10.55;87.90
40059;SHT31;25763;49.972;8.568;2022-10-31T06:43:53;10.62;87.84
40059;SHT31;25763;49.972;8.568;2022-10-31T06:46:19;10.68;87.79
40059;SHT31;25763;49.972;8.568;2022-10-31T06:48:44;10.72;87.70
40059;SHT31;25763;49.972;8.568;2022-10-31T06:51:09;10.82;87.63
40059;SHT31;25763;49.972;8.568;2022-10-31T06:53:35;10.86;87.90
40059;SHT31;25763;49.972;8.568;2022-10-31T06:56:00;10.99;87.97
40059;SHT31;25763;49.972;8.568;2022-10-31T06:58:25;11.03;87.82
40059;SHT31;25763;49.972;8.568;2022-10-31T07:00:51;11.12;87.82
40059;SHT31;25763;49.972;8.568;2022-10-31T07:03:16;11.03;88.11
40059;SHT31;25763;49.972;8.568;2022-10-31T07:05:42;11.01;88.46
40059;SHT31;25763;49.972;8.568;2022-10-31T07:08:10;10.96;88.69
40059;SHT31;25763;49.972;8.568;2022-10-31T07:10:37;10.94;88.89
40059;SHT31;25763;49.972;8.568;2022-10-31T07:13:05;11.04;88.96
40059;SHT31;25763;49.972;8.568;2022-10-31T07:15:36;11.20;88.88
40059;SHT31;25763;49.972;8.568;2022-10-31T07:18:06;11.34;88.65
40059;SHT31;25763;49.972;8.568;2022-10-31T07:20:32;11.34;88.45
40059;SHT31;25763;49.972;8.568;2022-10-31T07:22:57;11.36;88.44
40059;SHT31;25763;49.972;8.568;2022-10-31T07:25:23;11.44;88.42
40059;SHT31;25763;49.972;8.568;2022-10-31T07:27:49;11.52;88.25
40059;SHT31;25763;49.972;8.568;2022-10-31T07:30:15;11.52;88.42
40059;SHT31;25763;49.972;8.568;2022-10-31T07:32:45;11.59;88.33
40059;SHT31;25763;49.972;8.568;2022-10-31T07:35:14;11.74;88.34
40059;SHT31;25763;49.972;8.568;2022-10-31T07:37:39;11.83;88.14
40059;SHT31;25763;49.972;8.568;2022-10-31T07:40:06;11.77;88.12
40059;SHT31;25763;49.972;8.568;2022-10-31T07:42:43;11.86;88.10
40059;SHT31;25763;49.972;8.568;2022-10-31T07:45:11;11.98;88.21
40059;SHT31;25763;49.972;8.568;2022-10-31T07:50:11;12.09;88.15
40059;SHT31;25763;49.972;8.568;2022-10-31T07:52:36;12.12;88.20
40059;SHT31;25763;49.972;8.568;2022-10-31T07:55:03;12.32;88.01
40059;SHT31;25763;49.972;8.568;2022-10-31T07:57:29;12.20;87.96
40059;SHT31;25763;49.972;8.568;2022-10-31T07:59:54;12.33;87.95
40059;SHT31;25763;49.972;8.568;2022-10-31T08:02:19;12.61;87.77
40059;SHT31;25763;49.972;8.568;2022-10-31T08:04:45;12.64;87.32
40059;SHT31;25763;49.972;8.568;2022-10-31T08:07:10;12.87;86.98
40059;SHT31;25763;49.972;8.568;2022-10-31T08:09:35;12.89;86.55
40059;SHT31;25763;49.972;8.568;2022-10-31T08:12:01;12.81;86.56
40059;SHT31;25763;49.972;8.568;2022-10-31T08:14:26;12.87;86.68
40059;SHT31;25763;49.972;8.568;2022-10-31T08:16:52;12.80;86.66
40059;SHT31;25763;49.972;8.568;2022-10-31T08:19:18;12.88;86.82
40059;SHT31;25763;49.972;8.568;2022-10-31T08:21:43;12.99;86.83
40059;SHT31;25763;49.972;8.568;2022-10-31T08:24:09;12.97;86.50
40059;SHT31;25763;49.972;8.568;2022-10-31T08:26:34;12.99;86.70
40059;SHT31;25763;49.972;8.568;2022-10-31T08:29:00;12.88;86.84
40059;SHT31;25763;49.972;8.568;2022-10-31T08:31:27;13.04;86.59
40059;SHT31;25763;49.972;8.568;2022-10-31T08:33:53;12.84;86.76
40059;SHT31;25763;49.972;8.568;2022-10-31T08:36:19;12.80;86.83
40059;SHT31;25763;49.972;8.568;2022-10-31T08:38:46;12.80;86.67
40059;SHT31;25763;49.972;8.568;2022-10-31T08:41:12;12.77;86.69
40059;SHT31;25763;49.972;8.568;2022-10-31T08:43:37;12.81;86.82
40059;SHT31;25763;49.972;8.568;2022-10-31T08:46:03;12.78;86.94
40059;SHT31;25763;49.972;8.568;2022-10-31T08:48:28;12.85;87.04
40059;SHT31;25763;49.972;8.568;2022-10-31T08:50:56;12.91;86.55
40059;SHT31;25763;49.972;8.568;2022-10-31T08:53:23;12.94;86.62
40059;SHT31;25763;49.972;8.568;2022-10-31T08:55:48;12.95;86.29
40059;SHT31;25763;49.972;8.568;2022-10-31T08:58:16;13.09;86.23
40059;SHT31;25763;49.972;8.568;2022-10-31T09:00:43;13.08;86.14
40059;SHT31;25763;49.972;8.568;2022-10-31T09:05:42;13.04;86.12
40059;SHT31;25763;49.972;8.568;2022-10-31T09:08:08;12.94;86.23
40059;SHT31;25763;49.972;8.568;2022-10-31T09:10:34;13.04;86.55
40059;SHT31;25763;49.972;8.568;2022-10-31T09:13:13;13.04;86.35
40059;SHT31;25763;49.972;8.568;2022-10-31T09:15:40;13.08;86.38
40059;SHT31;25763;49.972;8.568;2022-10-31T09:18:07;13.18;86.31
40059;SHT31;25763;49.972;8.568;2022-10-31T09:20:33;13.30;86.22
40059;SHT31;25763;49.972;8.568;2022-10-31T09:23:20;13.44;85.83
40059;SHT31;25763;49.972;8.568;2022-10-31T09:25:47;13.53;85.53
40059;SHT31;25763;49.972;8.568;2022-10-31T09:28:15;13.50;85.64
40059;SHT31;25763;49.972;8.568;2022-10-31T09:30:41;13.46;85.72
40059;SHT31;25763;49.972;8.568;2022-10-31T09:33:09;13.54;85.64
40059;SHT31;25763;49.972;8.568;2022-10-31T09:35:35;13.78;85.51
40059;SHT31;25763;49.972;8.568;2022-10-31T09:38:04;14.05;85.42
40059;SHT31;25763;49.972;8.568;2022-10-31T09:40:39;14.03;84.93
40059;SHT31;25763;49.972;8.568;2022-10-31T09:48:37;14.21;84.95
40059;SHT31;25763;49.972;8.568;2022-10-31T09:51:12;14.12;84.84
40059;SHT31;25763;49.972;8.568;2022-10-31T09:53:42;14.02;85.08
40059;SHT31;25763;49.972;8.568;2022-10-31T09:56:10;14.10;85.25
40059;SHT31;25763;49.972;8.568;2022-10-31T09:58:42;14.34;85.01
40059;SHT31;25763;49.972;8.568;2022-10-31T10:01:21;14.38;84.88
40059;SHT31;25763;49.972;8.568;2022-10-31T10:03:53;14.35;84.53
40059;SHT31;25763;49.972;8.568;2022-10-31T10:06:28;14.48;84.32
40059;SHT31;25763;49.972;8.568;2022-10-31T10:08:56;14.55;84.33
40059;SHT31;25763;49.972;8.568;2022-10-31T10:14:18;14.69;84.17
40059;SHT31;25763;49.972;8.568;2022-10-31T10:30:42;15.21;83.17
40059;SHT31;25763;49.972;8.568;2022-10-31T10:33:11;15.17;82.68
40059;SHT31;25763;49.972;8.568;2022-10-31T10:35:50;15.24;82.67
40059;SHT31;25763;49.972;8.568;2022-10-31T10:38:22;15.32;82.78
40059;SHT31;25763;49.972;8.568;2022-10-31T10:40:49;15.35;82.72
40059;SHT31;25763;49.972;8.568;2022-10-31T10:43:21;15.30;82.54
40059;SHT31;25763;49.972;8.568;2022-10-31T10:51:58;15.53;81.59
40059;SHT31;25763;49.972;8.568;2022-10-31T10:59:55;16.26;80.39
40059;SHT31;25763;49.972;8.568;2022-10-31T11:02:24;16.28;79.73
40059;SHT31;25763;49.972;8.568;2022-10-31T11:04:54;16.32;79.14
40059;SHT31;25763;49.972;8.568;2022-10-31T11:07:21;16.36;79.54
40059;SHT31;25763;49.972;8.568;2022-10-31T11:09:47;16.47;79.15
40059;SHT31;25763;49.972;8.568;2022-10-31T11:12:30;16.70;78.97
40059;SHT31;25763;49.972;8.568;2022-10-31T11:14:59;16.61;78.26
40059;SHT31;25763;49.972;8.568;2022-10-31T11:17:27;16.78;78.65
40059;SHT31;25763;49.972;8.568;2022-10-31T11:22:40;17.19;77.76
40059;SHT31;25763;49.972;8.568;2022-10-31T11:27:44;17.20;77.00
40059;SHT31;25763;49.972;8.568;2022-10-31T11:30:13;17.02;77.00
40059;SHT31;25763;49.972;8.568;2022-10-31T11:32:46;17.02;77.85
40059;SHT31;25763;49.972;8.568;2022-10-31T11:35:16;17.02;77.50
40059;SHT31;25763;49.972;8.568;2022-10-31T11:37:44;17.04;77.76
40059;SHT31;25763;49.972;8.568;2022-10-31T11:40:22;17.30;77.27
40059;SHT31;25763;49.972;8.568;2022-10-31T11:42:48;17.54;77.56
40059;SHT31;25763;49.972;8.568;2022-10-31T11:45:15;17.27;76.88
40059;SHT31;25763;49.972;8.568;2022-10-31T11:47:52;17.37;77.26
40059;SHT31;25763;49.972;8.568;2022-10-31T11:50:21;17.37;77.12
40059;SHT31;25763;49.972;8.568;2022-10-31T11:52:47;17.41;76.71
40059;SHT31;25763;49.972;8.568;2022-10-31T11:55:16;17.63;76.88
40059;SHT31;25763;49.972;8.568;2022-10-31T11:57:43;17.85;76.57
40059;SHT31;25763;49.972;8.568;2022-10-31T12:02:46;18.34;75.14
40059;SHT31;25763;49.972;8.568;2022-10-31T12:05:23;18.55;75.81
40059;SHT31;25763;49.972;8.568;2022-10-31T12:07:50;18.44;74.96
40059;SHT31;25763;49.972;8.568;2022-10-31T12:10:19;18.71;75.38
40059;SHT31;25763;49.972;8.568;2022-10-31T12:15:45;18.82;74.40
40059;SHT31;25763;49.972;8.568;2022-10-31T12:26:44;19.04;73.36
40059;SHT31;25763;49.972;8.568;2022-10-31T12:29:30;19.21;72.93
40059;SHT31;25763;49.972;8.568;2022-10-31T12:35:02;19.21;72.45
40059;SHT31;25763;49.972;8.568;2022-10-31T12:37:38;19.35;71.47
40059;SHT31;25763;49.972;8.568;2022-10-31T12:56:45;18.79;73.17
40059;SHT31;25763;49.972;8.568;2022-10-31T12:59:42;18.79;73.13
40059;SHT31;25763;49.972;8.568;2022-10-31T13:02:19;18.82;73.19
40059;SHT31;25763;49.972;8.568;2022-10-31T13:04:54;18.80;73.39
40059;SHT31;25763;49.972;8.568;2022-10-31T13:07:37;18.75;73.16
40059;SHT31;25763;49.972;8.568;2022-10-31T13:10:19;18.67;73.29
40059;SHT31;25763;49.972;8.568;2022-10-31T13:12:49;18.68;73.55
40059;SHT31;25763;49.972;8.568;2022-10-31T13:15:19;18.71;73.41
40059;SHT31;25763;49.972;8.568;2022-10-31T13:17:53;18.89;74.64
40059;SHT31;25763;49.972;8.568;2022-10-31T13:20:41;18.97;74.14
40059;SHT31;25763;49.972;8.568;2022-10-31T13:25:49;18.80;73.24
40059;SHT31;25763;49.972;8.568;2022-10-31T13:28:38;18.69;72.85
40059;SHT31;25763;49.972;8.568;2022-10-31T13:31:05;18.77;73.00
40059;SHT31;25763;49.972;8.568;2022-10-31T13:33:52;18.72;73.11
40059;SHT31;25763;49.972;8.568;2022-10-31T13:38:56;18.83;72.52
40059;SHT31;25763;49.972;8.568;2022-10-31T13:41:35;18.99;73.94
40059;SHT31;25763;49.972;8.568;2022-10-31T13:44:18;18.77;72.60
40059;SHT31;25763;49.972;8.568;2022-10-31T13:46:45;18.69;72.97
40059;SHT31;25763;49.972;8.568;2022-10-31T13:54:38;18.48;73.74
40059;SHT31;25763;49.972;8.568;2022-10-31T13:57:18;18.48;73.95
40059;SHT31;25763;49.972;8.568;2022-10-31T14:00:22;18.35;74.31
40059;SHT31;25763;49.972;8.568;2022-10-31T14:02:51;18.26;74.72
40059;SHT31;25763;49.972;8.568;2022-10-31T14:05:25;18.14;75.09
40059;SHT31;25763;49.972;8.568;2022-10-31T14:07:53;18.13;75.51
40059;SHT31;25763;49.972;8.568;2022-10-31T14:10:26;18.20;75.77
40059;SHT31;25763;49.972;8.568;2022-10-31T14:13:02;18.13;75.07
40059;SHT31;25763;49.972;8.568;2022-10-31T14:15:28;18.10;75.48
40059;SHT31;25763;49.972;8.568;2022-10-31T14:18:01;18.02;75.74
40059;SHT31;25763;49.972;8.568;2022-10-31T14:20:39;18.10;75.85
40059;SHT31;25763;49.972;8.568;2022-10-31T14:23:12;18.21;76.51
40059;SHT31;25763;49.972;8.568;2022-10-31T14:25:38;18.40;77.03
40059;SHT31;25763;49.972;8.568;2022-10-31T14:28:30;18.50;75.75
40059;SHT31;25763;49.972;8.568;2022-10-31T14:30:58;18.58;75.67
40059;SHT31;25763;49.972;8.568;2022-10-31T14:33:27;18.86;75.27
40059;SHT31;25763;49.972;8.568;2022-10-31T14:51:45;19.39;72.05
40059;SHT31;25763;49.972;8.568;2022-10-31T14:54:15;19.35;72.91
40059;SHT31;25763;49.972;8.568;2022-10-31T14:56:49;19.23;73.63
40059;SHT31;25763;49.972;8.568;2022-10-31T14:59:21;19.12;73.77
40059;SHT31;25763;49.972;8.568;2022-10-31T15:01:59;19.00;73.79
40059;SHT31;25763;49.972;8.568;2022-10-31T15:04:28;18.61;73.85
40059;SHT31;25763;49.972;8.568;2022-10-31T15:07:19;18.44;74.05
40059;SHT31;25763;49.972;8.568;2022-10-31T15:09:45;18.33;74.28
40059;SHT31;25763;49.972;8.568;2022-10-31T15:12:31;18.20;74.91
40059;SHT31;25763;49.972;8.568;2022-10-31T15:14:57;18.03;75.49
40059;SHT31;25763;49.972;8.568;2022-10-31T15:17:26;17.93;76.53
40059;SHT31;25763;49.972;8.568;2022-10-31T15:19:52;17.88;76.82
40059;SHT31;25763;49.972;8.568;2022-10-31T15:22:21;17.78;76.98
40059;SHT31;25763;49.972;8.568;2022-10-31T15:24:48;17.67;77.25
40059;SHT31;25763;49.972;8.568;2022-10-31T15:27:21;17.60;77.87
40059;SHT31;25763;49.972;8.568;2022-10-31T15:29:52;17.53;78.25
40059;SHT31;25763;49.972;8.568;2022-10-31T15:32:19;17.41;78.20
40059;SHT31;25763;49.972;8.568;2022-10-31T15:34:46;17.33;78.83
40059;SHT31;25763;49.972;8.568;2022-10-31T15:37:19;17.27;79.12
40059;SHT31;25763;49.972;8.568;2022-10-31T15:39:46;17.25;79.21
40059;SHT31;25763;49.972;8.568;2022-10-31T15:42:22;16.99;79.39
40059;SHT31;25763;49.972;8.568;2022-10-31T15:44:58;16.92;79.71
40059;SHT31;25763;49.972;8.568;2022-10-31T15:47:25;16.83;80.04
40059;SHT31;25763;49.972;8.568;2022-10-31T15:49:55;16.77;80.39
40059;SHT31;25763;49.972;8.568;2022-10-31T15:52:39;16.70;80.72
40059;SHT31;25763;49.972;8.568;2022-10-31T15:55:21;16.70;81.00
40059;SHT31;25763;49.972;8.568;2022-10-31T15:57:58;16.61;81.34
40059;SHT31;25763;49.972;8.568;2022-10-31T16:00:32;16.53;81.61
40059;SHT31;25763;49.972;8.568;2022-10-31T16:03:23;16.40;82.27
40059;SHT31;25763;49.972;8.568;2022-10-31T16:05:54;16.28;82.69
40059;SHT31;25763;49.972;8.568;2022-10-31T16:10:55;16.05;83.08
40059;SHT31;25763;49.972;8.568;2022-10-31T16:13:26;16.11;82.92
40059;SHT31;25763;49.972;8.568;2022-10-31T16:15:56;16.05;83.15
40059;SHT31;25763;49.972;8.568;2022-10-31T16:18:23;15.97;83.27
40059;SHT31;25763;49.972;8.568;2022-10-31T16:20:50;15.91;83.24
40059;SHT31;25763;49.972;8.568;2022-10-31T16:23:19;15.86;83.42
40059;SHT31;25763;49.972;8.568;2022-10-31T16:25:46;15.91;83.21
40059;SHT31;25763;49.972;8.568;2022-10-31T16:28:18;16.01;82.94
40059;SHT31;25763;49.972;8.568;2022-10-31T16:30:45;16.07;82.66
40059;SHT31;25763;49.972;8.568;2022-10-31T16:33:35;16.12;82.22
40059;SHT31;25763;49.972;8.568;2022-10-31T16:38:52;16.18;81.94
40059;SHT31;25763;49.972;8.568;2022-10-31T16:41:18;16.21;81.77
40059;SHT31;25763;49.972;8.568;2022-10-31T16:43:43;16.21;81.67
40059;SHT31;25763;49.972;8.568;2022-10-31T16:46:14;16.17;81.68
40059;SHT31;25763;49.972;8.568;2022-10-31T16:48:40;16.20;81.70
40059;SHT31;25763;49.972;8.568;2022-10-31T16:51:07;16.24;81.49
40059;SHT31;25763;49.972;8.568;2022-10-31T16:53:33;16.28;81.22
40059;SHT31;25763;49.972;8.568;2022-10-31T16:55:59;16.24;81.40
40059;SHT31;25763;49.972;8.568;2022-10-31T16:58:31;16.15;81.71
40059;SHT31;25763;49.972;8.568;2022-10-31T17:00:58;16.07;81.88
40059;SHT31;25763;49.972;8.568;2022-10-31T17:03:24;15.96;82.24
40059;SHT31;25763;49.972;8.568;2022-10-31T17:05:49;15.86;82.57
40059;SHT31;25763;49.972;8.568;2022-10-31T17:08:15;15.79;82.80
40059;SHT31;25763;49.972;8.568;2022-10-31T17:10:42;15.83;82.52
40059;SHT31;25763;49.972;8.568;2022-10-31T17:13:18;15.81;82.57
40059;SHT31;25763;49.972;8.568;2022-10-31T17:15:46;15.81;82.57
40059;SHT31;25763;49.972;8.568;2022-10-31T17:18:14;15.69;82.90
40059;SHT31;25763;49.972;8.568;2022-10-31T17:20:41;15.53;83.57
40059;SHT31;25763;49.972;8.568;2022-10-31T17:23:09;15.65;83.29
40059;SHT31;25763;49.972;8.568;2022-10-31T17:25:35;15.66;83.27
40059;SHT31;25763;49.972;8.568;2022-10-31T17:28:00;15.70;83.27
40059;SHT31;25763;49.972;8.568;2022-10-31T17:30:26;15.67;83.15
40059;SHT31;25763;49.972;8.568;2022-10-31T17:32:52;15.65;83.22
40059;SHT31;25763;49.972;8.568;2022-10-31T17:35:20;15.65;83.15
40059;SHT31;25763;49.972;8.568;2022-10-31T17:37:46;15.59;83.27
40059;SHT31;25763;49.972;8.568;2022-10-31T17:40:14;15.59;83.28
40059;SHT31;25763;49.972;8.568;2022-10-31T17:42:40;15.55;83.22
40059;SHT31;25763;49.972;8.568;2022-10-31T17:45:06;15.52;83.26
40059;SHT31;25763;49.972;8.568;2022-10-31T17:47:32;15.44;83.67